Time;durP1;ratioP1;P1;durP2;ratioP2;P2;SDS_P1;SDS_P2;PMS_P1;PMS_P2;Temp;Humidity;BMP_temperature;BMP_pressure;BME280_temperature;BME280_humidity;BME280_pressure;Samples;Min_cycle;Max_cycle;Signal;HPM_P1;HPM_P2
2021/12/14 00:01:42;;;;;;;3.38;2.30;;;10.70;96.70;;;;;;5002270;28;20115;-85
2021/12/14 00:04:16;;;;;;;3.65;2.72;;;10.70;96.80;;;;;;5011927;28;20036;-85
2021/12/14 00:06:43;;;;;;;3.40;2.47;;;10.60;96.70;;;;;;5018098;28;20551;-85
2021/12/14 00:09:22;;;;;;;3.55;2.67;;;10.60;96.80;;;;;;5000071;28;20040;-85
2021/12/14 00:12:32;;;;;;;2.83;2.47;;;10.60;96.80;;;;;;5014719;28;20029;-84
2021/12/14 00:17:20;;;;;;;3.33;2.78;;;10.60;96.80;;;;;;5023003;28;20602;-85
2021/12/14 00:19:47;;;;;;;3.88;2.92;;;10.60;96.70;;;;;;5002723;28;20036;-86
2021/12/14 00:22:29;;;;;;;4.80;3.30;;;10.60;96.80;;;;;;5024465;28;20028;-86
2021/12/14 00:24:56;;;;;;;4.90;3.28;;;10.60;96.80;;;;;;5020634;28;20020;-85
2021/12/14 00:27:23;;;;;;;4.35;2.92;;;10.60;96.90;;;;;;5039239;28;20039;-85
2021/12/14 00:29:54;;;;;;;4.05;3.20;;;10.50;97.20;;;;;;5017030;28;20025;-85
2021/12/14 00:32:23;;;;;;;4.72;3.10;;;10.50;96.90;;;;;;5023107;28;20037;-85
2021/12/14 00:34:51;;;;;;;4.63;3.25;;;10.60;96.90;;;;;;5039610;28;20501;-86
2021/12/14 00:37:29;;;;;;;4.90;3.67;;;10.50;96.90;;;;;;5024688;28;20057;-85
2021/12/14 00:39:57;;;;;;;4.80;3.35;;;10.50;96.80;;;;;;4996365;28;20151;-85
2021/12/14 00:42:23;;;;;;;4.97;3.65;;;10.50;96.90;;;;;;5034693;28;20079;-84
2021/12/14 00:44:49;;;;;;;5.40;3.33;;;10.50;96.90;;;;;;5013691;28;20489;-86
2021/12/14 00:47:16;;;;;;;5.35;3.70;;;10.60;97.00;;;;;;5045701;28;20016;-85
2021/12/14 00:49:46;;;;;;;4.28;3.40;;;10.50;97.00;;;;;;5010879;28;20400;-85
2021/12/14 00:52:12;;;;;;;4.45;3.42;;;10.60;97.00;;;;;;5007158;28;20857;-86
2021/12/14 00:54:38;;;;;;;4.80;3.53;;;10.50;97.00;;;;;;5036538;28;20021;-85
2021/12/14 00:57:06;;;;;;;5.88;4.35;;;10.60;97.00;;;;;;5039177;28;20070;-85
2021/12/14 00:59:33;;;;;;;6.00;4.07;;;10.50;97.00;;;;;;5021564;28;20532;-85
2021/12/14 01:02:20;;;;;;;5.20;3.97;;;10.50;97.00;;;;;;5035451;28;20024;-85
2021/12/14 01:04:51;;;;;;;5.05;3.65;;;10.50;97.00;;;;;;5017263;28;20150;-85
2021/12/14 01:07:19;;;;;;;6.22;4.40;;;10.60;97.00;;;;;;5025825;28;20067;-85
2021/12/14 01:09:48;;;;;;;6.40;3.70;;;10.50;96.90;;;;;;5011201;28;20099;-85
2021/12/14 01:12:31;;;;;;;5.10;3.80;;;10.50;96.80;;;;;;5010384;28;20017;-85
2021/12/14 01:15:24;;;;;;;6.32;4.45;;;10.50;96.80;;;;;;5026579;28;20028;-85
2021/12/14 01:18:13;;;;;;;5.55;4.38;;;10.50;96.70;;;;;;5031487;28;20346;-85
2021/12/14 01:20:45;;;;;;;6.35;4.40;;;10.50;96.70;;;;;;5010630;28;20028;-85
2021/12/14 01:23:21;;;;;;;6.25;4.35;;;10.50;96.80;;;;;;5048887;28;20032;-85
2021/12/14 01:25:51;;;;;;;6.10;4.32;;;10.50;96.70;;;;;;5006619;28;20672;-86
2021/12/14 01:28:24;;;;;;;5.68;3.95;;;10.50;96.70;;;;;;5011279;28;20035;-85
2021/12/14 01:31:08;;;;;;;5.15;4.10;;;10.50;96.70;;;;;;5023142;28;20037;-85
2021/12/14 01:33:37;;;;;;;6.22;4.15;;;10.40;96.60;;;;;;5010167;28;20025;-85
2021/12/14 01:36:10;;;;;;;5.97;3.90;;;10.40;96.70;;;;;;5007389;28;20036;-86
2021/12/14 01:38:46;;;;;;;5.03;3.88;;;10.40;96.80;;;;;;4994104;28;20054;-85
2021/12/14 01:41:14;;;;;;;4.75;3.63;;;10.40;96.90;;;;;;4998256;28;20057;-85
2021/12/14 01:43:45;;;;;;;4.95;3.70;;;10.40;96.80;;;;;;5025239;28;20029;-85
2021/12/14 01:46:20;;;;;;;4.70;3.40;;;10.30;96.80;;;;;;5012533;28;20025;-85
2021/12/14 01:48:48;;;;;;;5.20;3.50;;;10.30;96.80;;;;;;5017561;28;20245;-86
2021/12/14 01:51:15;;;;;;;4.55;3.30;;;10.30;96.80;;;;;;4998130;28;20021;-85
2021/12/14 01:53:44;;;;;;;5.15;3.63;;;10.30;96.90;;;;;;4996487;28;20033;-85
2021/12/14 01:56:13;;;;;;;3.70;2.85;;;10.30;96.90;;;;;;4998699;28;20079;-85
2021/12/14 01:58:45;;;;;;;4.22;3.22;;;10.30;96.90;;;;;;4994265;28;20108;-85
2021/12/14 02:01:19;;;;;;;3.60;2.78;;;10.30;96.90;;;;;;5020282;28;20090;-85
2021/12/14 02:03:53;;;;;;;4.70;3.42;;;10.30;96.90;;;;;;5022381;28;20020;-85
2021/12/14 02:06:22;;;;;;;;;;;10.30;96.90;;;;;;5012381;28;20033;-85
2021/12/14 02:08:56;;;;;;;3.75;2.67;;;10.30;96.40;;;;;;5028408;28;20136;-85
2021/12/14 02:11:22;;;;;;;4.40;3.10;;;10.30;96.70;;;;;;4993679;28;20021;-85
2021/12/14 02:13:52;;;;;;;4.28;3.15;;;10.30;96.90;;;;;;5016098;28;20021;-85
2021/12/14 02:16:19;;;;;;;4.38;3.20;;;10.20;96.90;;;;;;4997048;28;20105;-85
2021/12/14 02:18:49;;;;;;;5.28;3.58;;;10.20;96.90;;;;;;5003305;28;20607;-85
2021/12/14 02:21:15;;;;;;;4.70;3.60;;;10.20;96.90;;;;;;4986180;28;20025;-85
2021/12/14 02:23:45;;;;;;;5.90;4.30;;;10.20;97.00;;;;;;4984983;28;20032;-85
2021/12/14 02:26:15;;;;;;;6.15;3.70;;;10.20;97.00;;;;;;5002979;28;20029;-85
2021/12/14 02:28:41;;;;;;;5.38;3.45;;;10.20;97.00;;;;;;5001929;28;20087;-85
2021/12/14 02:31:10;;;;;;;5.72;3.83;;;10.20;97.10;;;;;;4994571;28;20139;-85
2021/12/14 02:33:39;;;;;;;5.13;3.78;;;10.20;97.00;;;;;;5012897;28;20028;-85
2021/12/14 02:36:12;;;;;;;5.57;4.03;;;10.20;97.00;;;;;;5009660;28;20025;-86
2021/12/14 02:38:44;;;;;;;4.50;3.17;;;10.20;97.00;;;;;;5018462;28;20028;-85
2021/12/14 02:41:10;;;;;;;4.78;3.22;;;10.20;97.00;;;;;;5018173;28;20028;-85
2021/12/14 02:43:36;;;;;;;6.53;3.38;;;10.20;97.10;;;;;;5019564;28;20035;-85
2021/12/14 02:46:24;;;;;;;5.20;3.88;;;10.20;97.10;;;;;;5004945;28;20060;-85
2021/12/14 02:48:53;;;;;;;7.00;3.97;;;10.20;96.80;;;;;;5024684;28;20025;-85
2021/12/14 02:51:34;;;;;;;5.53;3.85;;;10.20;97.00;;;;;;5028617;28;20416;-85
2021/12/14 02:54:05;;;;;;;5.38;3.78;;;10.20;97.00;;;;;;5005790;28;20336;-85
2021/12/14 02:56:32;;;;;;;5.05;3.60;;;10.20;97.00;;;;;;5002668;28;20516;-85
2021/12/14 02:59:09;;;;;;;5.10;3.65;;;10.20;97.10;;;;;;5040608;28;20120;-85
2021/12/14 03:01:36;;;;;;;5.78;3.92;;;10.30;97.00;;;;;;5037377;28;20458;-85
2021/12/14 03:04:05;;;;;;;6.40;4.30;;;10.30;97.10;;;;;;5021812;28;20020;-85
2021/12/14 03:06:45;;;;;;;4.82;3.42;;;10.20;97.10;;;;;;5013916;28;20029;-84
2021/12/14 03:09:33;;;;;;;5.10;3.42;;;10.30;97.00;;;;;;5021593;28;20028;-85
2021/12/14 03:12:15;;;;;;;6.93;4.25;;;10.30;97.00;;;;;;5030134;28;20032;-85
2021/12/14 03:14:54;;;;;;;6.05;4.03;;;10.30;96.90;;;;;;5009705;28;20057;-85
2021/12/14 03:17:20;;;;;;;6.97;4.35;;;10.30;96.90;;;;;;5041780;28;20061;-85
2021/12/14 03:19:57;;;;;;;6.07;4.45;;;10.30;97.10;;;;;;5011084;28;20231;-85
2021/12/14 03:22:34;;;;;;;6.75;3.97;;;10.30;96.90;;;;;;5009478;28;20417;-85
2021/12/14 03:25:00;;;;;;;6.95;4.30;;;10.30;97.00;;;;;;5011888;28;20313;-85
2021/12/14 03:27:27;;;;;;;6.65;4.65;;;10.30;97.10;;;;;;5008206;28;20056;-85
2021/12/14 03:29:53;;;;;;;6.63;4.63;;;10.30;97.10;;;;;;5034417;28;20111;-85
2021/12/14 03:32:19;;;;;;;6.88;5.07;;;10.30;97.10;;;;;;4998037;28;20090;-85
2021/12/14 03:34:45;;;;;;;6.93;4.65;;;10.30;97.00;;;;;;5015539;28;20020;-85
2021/12/14 03:37:20;;;;;;;9.27;5.68;;;10.30;97.10;;;;;;5016810;28;20017;-85
2021/12/14 03:39:53;;;;;;;7.32;5.03;;;10.30;97.00;;;;;;4998934;28;20102;-85
2021/12/14 03:42:35;;;;;;;8.18;5.90;;;10.30;97.00;;;;;;5040591;28;20038;-85
2021/12/14 03:45:02;;;;;;;11.05;6.88;;;10.30;97.00;;;;;;5024837;28;20128;-85
2021/12/14 03:47:39;;;;;;;9.20;5.43;;;10.30;97.00;;;;;;5008936;28;20025;-85
2021/12/14 03:50:17;;;;;;;8.38;5.25;;;10.30;97.00;;;;;;5023450;28;20016;-85
2021/12/14 03:52:44;;;;;;;9.85;6.30;;;10.30;96.80;;;;;;5015753;28;20033;-85
2021/12/14 03:55:21;;;;;;;10.07;6.65;;;10.20;96.90;;;;;;5026916;28;20382;-85
2021/12/14 03:57:47;;;;;;;10.93;6.22;;;10.20;96.90;;;;;;5018772;28;20799;-85
2021/12/14 04:00:21;;;;;;;8.25;5.82;;;10.30;97.00;;;;;;5016959;28;20485;-85
2021/12/14 04:02:48;;;;;;;9.15;5.65;;;10.20;97.00;;;;;;5011519;28;20178;-84
2021/12/14 04:05:14;;;;;;;9.65;5.97;;;10.30;97.10;;;;;;5033956;28;20469;-85
2021/12/14 04:07:42;;;;;;;11.45;7.20;;;10.30;97.10;;;;;;5036980;28;20044;-85
2021/12/14 04:10:16;;;;;;;11.38;6.32;;;10.30;97.10;;;;;;5006749;28;20059;-85
2021/12/14 04:12:42;;;;;;;9.63;6.50;;;10.20;97.00;;;;;;5019180;28;20123;-85
2021/12/14 04:15:09;;;;;;;10.30;5.63;;;10.20;97.10;;;;;;5020837;28;20028;-85
2021/12/14 04:17:35;;;;;;;8.43;5.53;;;10.20;97.10;;;;;;5030730;28;20059;-85
2021/12/14 04:20:08;;;;;;;9.27;5.97;;;10.30;97.10;;;;;;5016737;28;20040;-85
2021/12/14 04:22:33;;;;;;;8.60;5.82;;;10.20;97.10;;;;;;5035021;28;20040;-85
2021/12/14 04:25:03;;;;;;;8.80;5.30;;;10.30;97.10;;;;;;4999569;28;20627;-85
2021/12/14 04:27:31;;;;;;;9.07;5.47;;;10.20;97.10;;;;;;5037669;28;20100;-85
2021/12/14 04:30:01;;;;;;;9.95;6.22;;;10.30;97.50;;;;;;5031982;28;20116;-85
2021/12/14 04:32:27;;;;;;;8.88;5.93;;;10.30;97.10;;;;;;5012645;28;20082;-85
2021/12/14 04:34:55;;;;;;;9.30;6.07;;;10.30;97.20;;;;;;5024718;28;20607;-85
2021/12/14 04:37:21;;;;;;;8.65;5.57;;;10.30;97.10;;;;;;5028505;28;20035;-85
2021/12/14 04:39:58;;;;;;;9.82;6.30;;;10.30;97.10;;;;;;5028685;28;20025;-85
2021/12/14 04:53:38;;;;;;;9.50;5.88;;;10.30;97.00;;;;;;5034639;28;20036;-85
2021/12/14 04:56:08;;;;;;;9.98;6.20;;;10.30;96.90;;;;;;5017538;28;20021;-85
2021/12/14 04:58:38;;;;;;;9.85;6.20;;;10.30;96.90;;;;;;5015763;28;20501;-85
2021/12/14 05:01:07;;;;;;;9.05;5.90;;;10.30;96.80;;;;;;5035480;28;20400;-85
2021/12/14 05:03:43;;;;;;;9.20;6.03;;;10.30;96.90;;;;;;5026999;28;20527;-85
2021/12/14 05:06:15;;;;;;;8.50;5.65;;;10.20;96.80;;;;;;5054671;28;20040;-85
2021/12/14 05:11:14;;;;;;;10.05;6.00;;;10.20;96.90;;;;;;5053869;28;20388;-85
2021/12/14 05:13:46;;;;;;;9.65;6.15;;;10.20;96.90;;;;;;4993094;28;20020;-84
2021/12/14 05:16:24;;;;;;;9.43;6.13;;;10.20;96.90;;;;;;5029370;28;20078;-84
2021/12/14 05:18:53;;;;;;;8.32;5.13;;;10.20;96.80;;;;;;5010533;28;20337;-84
2021/12/14 05:21:32;;;;;;;9.85;5.55;;;10.20;96.90;;;;;;5006992;28;20362;-85
2021/12/14 05:24:01;;;;;;;8.45;5.80;;;10.20;96.80;;;;;;5033982;28;20573;-85
2021/12/14 05:26:27;;;;;;;8.63;5.28;;;10.20;96.90;;;;;;5054261;28;20033;-85
2021/12/14 05:28:53;;;;;;;9.85;6.43;;;10.20;97.00;;;;;;5016666;28;20540;-85
2021/12/14 05:31:19;;;;;;;9.38;5.85;;;10.20;96.90;;;;;;5011738;28;20055;-85
2021/12/14 05:33:45;;;;;;;9.27;5.63;;;10.20;97.00;;;;;;5018723;28;20048;-85
2021/12/14 05:36:15;;;;;;;10.38;6.05;;;10.20;97.00;;;;;;5040963;28;20028;-85
2021/12/14 05:43:58;;;;;;;8.50;5.28;;;10.20;97.00;;;;;;4966882;28;20380;-85
2021/12/14 05:46:24;;;;;;;9.23;5.53;;;10.20;97.00;;;;;;5036570;28;20112;-85
2021/12/14 05:49:00;;;;;;;8.48;6.05;;;10.20;97.00;;;;;;5029133;28;20235;-85
2021/12/14 05:51:28;;;;;;;9.50;5.85;;;10.20;96.90;;;;;;5016052;28;20032;-85
2021/12/14 05:53:55;;;;;;;8.40;5.82;;;10.20;96.90;;;;;;5016611;28;20351;-85
2021/12/14 05:56:22;;;;;;;8.25;5.40;;;10.20;97.00;;;;;;5013434;28;20135;-85
2021/12/14 05:58:49;;;;;;;8.07;5.13;;;10.20;97.00;;;;;;4985683;28;21135;-85
2021/12/14 06:01:19;;;;;;;10.57;6.68;;;10.20;97.10;;;;;;5015076;28;20021;-85
2021/12/14 06:03:53;;;;;;;10.15;6.60;;;10.20;97.00;;;;;;5002339;28;20032;-85
2021/12/14 06:06:32;;;;;;;9.48;6.60;;;10.20;96.90;;;;;;5023705;28;20481;-85
2021/12/14 06:09:09;;;;;;;8.90;5.68;;;10.20;97.00;;;;;;5026640;28;20598;-84
2021/12/14 06:11:36;;;;;;;11.20;6.57;;;10.20;96.90;;;;;;5013050;28;20536;-85
2021/12/14 06:14:03;;;;;;;11.75;7.00;;;10.20;97.00;;;;;;5020621;28;20853;-85
2021/12/14 06:16:35;;;;;;;10.65;6.25;;;10.20;97.00;;;;;;5024023;28;20107;-85
2021/12/14 06:19:15;;;;;;;9.20;5.50;;;10.20;97.00;;;;;;5020966;28;21043;-86
2021/12/14 06:21:42;;;;;;;9.90;6.25;;;10.20;96.80;;;;;;5014466;28;20032;-85
2021/12/14 06:24:10;;;;;;;9.48;6.20;;;10.20;97.10;;;;;;5025547;28;20025;-85
2021/12/14 06:26:40;;;;;;;11.77;6.40;;;10.20;97.00;;;;;;5035202;28;20077;-85
2021/12/14 06:29:15;;;;;;;9.60;5.95;;;10.20;97.10;;;;;;5003368;28;20036;-84
2021/12/14 06:31:41;;;;;;;10.73;6.32;;;10.20;97.00;;;;;;5031755;28;20039;-85
2021/12/14 06:34:22;;;;;;;11.40;6.70;;;10.20;97.10;;;;;;5021043;28;20029;-85
2021/12/14 06:37:28;;;;;;;11.20;6.63;;;10.20;96.90;;;;;;5017949;28;20218;-85
2021/12/14 06:40:09;;;;;;;11.23;6.40;;;10.20;96.60;;;;;;5004983;28;20120;-85
2021/12/14 06:42:41;;;;;;;14.85;6.78;;;10.20;96.90;;;;;;5029664;28;20060;-85
2021/12/14 06:45:16;;;;;;;10.40;6.35;;;10.20;97.00;;;;;;5022988;28;20067;-85
2021/12/14 06:47:44;;;;;;;11.40;6.00;;;10.20;96.90;;;;;;5015358;28;20032;-85
2021/12/14 06:50:19;;;;;;;12.23;6.47;;;10.20;97.00;;;;;;5025542;28;20029;-85
2021/12/14 06:52:58;;;;;;;11.27;6.97;;;10.20;96.90;;;;;;5001726;28;20035;-85
2021/12/14 06:55:26;;;;;;;12.40;6.13;;;10.20;96.90;;;;;;5002008;28;20538;-85
2021/12/14 06:57:51;;;;;;;11.82;7.15;;;10.20;97.00;;;;;;5016260;28;20210;-85
2021/12/14 07:00:18;;;;;;;13.98;7.15;;;10.20;97.00;;;;;;5016959;28;20024;-85
2021/12/14 07:02:51;;;;;;;13.07;7.43;;;10.20;97.00;;;;;;5027395;28;20067;-85
2021/12/14 07:05:20;;;;;;;14.47;7.67;;;10.20;96.80;;;;;;5026137;28;20044;-85
2021/12/14 07:07:46;;;;;;;12.90;7.38;;;10.20;97.00;;;;;;5004490;28;20103;-85
2021/12/14 07:10:12;;;;;;;14.23;7.82;;;10.20;97.00;;;;;;5030137;28;20047;-85
2021/12/14 07:12:40;;;;;;;13.70;7.93;;;10.20;97.00;;;;;;5030290;28;20079;-85
2021/12/14 07:15:09;;;;;;;13.95;7.65;;;10.20;97.00;;;;;;5040014;28;20055;-85
2021/12/14 07:17:43;;;;;;;13.82;7.90;;;10.20;96.90;;;;;;5010607;28;20032;-85
2021/12/14 07:20:18;;;;;;;16.00;8.35;;;10.20;96.90;;;;;;5023725;28;20028;-85
2021/12/14 07:22:45;;;;;;;15.82;8.48;;;10.20;96.70;;;;;;5013519;28;20131;-85
2021/12/14 07:25:15;;;;;;;16.35;9.10;;;10.20;96.90;;;;;;5037405;28;20035;-85
2021/12/14 07:27:54;;;;;;;17.42;8.10;;;10.20;96.90;;;;;;5015211;28;20037;-85
2021/12/14 07:30:51;;;;;;;14.63;8.23;;;10.20;96.90;;;;;;5010729;28;20056;-85
2021/12/14 07:33:28;;;;;;;14.43;7.68;;;10.20;96.90;;;;;;4979794;28;20046;-85
2021/12/14 07:36:06;;;;;;;17.40;9.00;;;10.20;97.00;;;;;;4998316;28;20048;-85
2021/12/14 07:38:43;;;;;;;15.68;8.45;;;10.20;96.90;;;;;;4995853;28;20115;-85
2021/12/14 07:41:18;;;;;;;15.63;8.43;;;10.20;96.90;;;;;;5000074;28;20059;-85
2021/12/14 07:44:05;;;;;;;15.73;8.68;;;10.20;96.90;;;;;;5005797;28;20638;-85
2021/12/14 07:46:30;;;;;;;16.45;7.93;;;10.20;96.80;;;;;;4995965;28;20036;-85
2021/12/14 07:49:07;;;;;;;16.30;8.27;;;10.20;97.10;;;;;;4990087;28;20042;-85
2021/12/14 07:51:36;;;;;;;16.15;7.40;;;10.20;96.90;;;;;;5010526;28;20029;-85
2021/12/14 07:54:15;;;;;;;16.33;8.10;;;10.20;97.10;;;;;;5024801;28;20399;-85
2021/12/14 07:56:46;;;;;;;16.08;8.48;;;10.20;96.90;;;;;;5000207;28;20651;-85
2021/12/14 07:59:32;;;;;;;17.13;8.82;;;10.20;97.10;;;;;;4990217;28;20036;-85
2021/12/14 08:02:15;;;;;;;15.50;8.80;;;10.20;96.90;;;;;;5006911;28;20490;-85
2021/12/14 08:05:06;;;;;;;15.63;8.27;;;10.20;96.90;;;;;;4976856;28;20464;-85
2021/12/14 08:07:41;;;;;;;13.95;7.57;;;10.20;97.00;;;;;;4998382;28;20049;-85
2021/12/14 08:10:16;;;;;;;17.02;8.65;;;10.30;97.60;;;;;;4986929;28;20387;-84
2021/12/14 08:12:50;;;;;;;16.05;8.82;;;10.20;97.10;;;;;;4999320;28;20634;-84
2021/12/14 08:15:30;;;;;;;17.73;9.07;;;10.30;97.10;;;;;;4996218;28;20401;-85
2021/12/14 08:18:11;;;;;;;17.17;9.40;;;10.20;97.10;;;;;;4999423;28;20040;-85
2021/12/14 08:20:57;;;;;;;18.23;9.55;;;10.30;97.10;;;;;;4984502;28;20033;-85
2021/12/14 08:23:25;;;;;;;16.48;9.27;;;10.20;97.00;;;;;;4992644;28;20032;-85
2021/12/14 08:25:59;;;;;;;17.23;9.07;;;10.30;97.20;;;;;;5022556;28;20372;-85
2021/12/14 08:28:25;;;;;;;19.40;9.70;;;10.30;97.10;;;;;;4999777;28;20043;-85
2021/12/14 08:31:03;;;;;;;17.80;9.52;;;10.30;97.20;;;;;;5010942;28;20804;-85
2021/12/14 08:33:30;;;;;;;17.48;9.10;;;10.30;97.10;;;;;;5012185;28;20073;-85
2021/12/14 08:36:02;;;;;;;16.65;8.38;;;10.30;97.30;;;;;;5003357;28;20465;-85
2021/12/14 08:38:30;;;;;;;16.52;8.68;;;10.30;97.20;;;;;;5002667;28;20143;-85
2021/12/14 08:41:07;;;;;;;16.02;8.27;;;10.30;97.40;;;;;;5015168;28;20056;-85
2021/12/14 08:43:34;;;;;;;18.15;9.15;;;10.40;97.70;;;;;;5009839;28;20116;-85
2021/12/14 08:46:09;;;;;;;17.77;9.05;;;10.40;97.50;;;;;;5034679;28;20025;-85
2021/12/14 08:48:50;;;;;;;16.92;9.32;;;10.40;97.50;;;;;;5020968;28;20021;-85
2021/12/14 08:51:22;;;;;;;17.17;9.75;;;10.40;97.20;;;;;;5034563;28;20109;-85
2021/12/14 08:54:09;;;;;;;17.15;9.45;;;10.40;97.40;;;;;;5015498;28;20029;-85
2021/12/14 08:56:41;;;;;;;17.35;8.98;;;10.40;97.30;;;;;;5021676;28;20025;-85
2021/12/14 08:59:07;;;;;;;17.95;9.07;;;10.50;97.50;;;;;;5023900;28;20037;-85
2021/12/14 09:01:35;;;;;;;17.60;8.95;;;10.50;97.50;;;;;;5003477;28;20120;-85
2021/12/14 09:04:09;;;;;;;17.65;9.10;;;10.50;97.50;;;;;;5011327;28;20045;-85
2021/12/14 09:06:38;;;;;;;16.95;9.20;;;10.50;97.50;;;;;;5016705;28;20119;-85
2021/12/14 09:09:08;;;;;;;18.15;9.23;;;10.60;97.60;;;;;;5036612;28;20032;-85
2021/12/14 09:11:37;;;;;;;17.67;9.20;;;10.60;97.70;;;;;;5013597;28;20031;-85
2021/12/14 09:14:09;;;;;;;20.50;10.82;;;10.60;97.70;;;;;;5034194;28;20036;-84
2021/12/14 09:16:36;;;;;;;17.98;9.73;;;10.60;97.60;;;;;;5002511;28;20029;-85
2021/12/14 09:19:26;;;;;;;19.60;9.88;;;10.70;97.60;;;;;;5007202;28;20051;-85
2021/12/14 09:21:55;;;;;;;17.90;9.30;;;10.70;97.10;;;;;;5001486;28;20593;-84
2021/12/14 09:24:24;;;;;;;25.33;11.00;;;10.70;97.60;;;;;;5013136;28;20027;-85
2021/12/14 09:26:55;;;;;;;18.15;9.55;;;10.80;97.70;;;;;;5006144;28;20025;-85
2021/12/14 09:29:22;;;;;;;23.10;10.32;;;10.80;98.10;;;;;;5010514;28;20036;-85
2021/12/14 09:31:51;;;;;;;20.95;11.00;;;10.90;97.80;;;;;;5000460;28;20869;-85
2021/12/14 09:34:20;;;;;;;24.48;11.25;;;10.90;97.70;;;;;;5046943;28;20488;-85
2021/12/14 09:36:46;;;;;;;21.30;11.50;;;10.90;97.80;;;;;;4997599;28;20033;-85
2021/12/14 09:39:18;;;;;;;19.05;10.00;;;11.00;97.90;;;;;;5019725;28;20036;-85
2021/12/14 09:41:50;;;;;;;21.15;10.23;;;11.00;98.00;;;;;;5021782;28;20379;-85
2021/12/14 09:44:20;;;;;;;20.23;10.70;;;11.10;98.10;;;;;;5025746;28;20443;-85
2021/12/14 09:46:46;;;;;;;20.38;10.63;;;11.10;98.00;;;;;;5005855;28;20565;-85
2021/12/14 09:49:14;;;;;;;21.42;10.48;;;11.20;97.80;;;;;;5024577;28;20408;-85
2021/12/14 09:51:42;;;;;;;20.52;10.18;;;11.20;97.60;;;;;;5022373;28;20021;-85
2021/12/14 09:54:12;;;;;;;17.15;9.75;;;11.20;97.60;;;;;;5020462;28;20041;-85
2021/12/14 09:56:44;;;;;;;20.90;10.77;;;11.20;97.50;;;;;;5021300;28;20295;-85
2021/12/14 09:59:10;;;;;;;20.52;10.30;;;11.30;97.50;;;;;;5014239;28;20013;-85
2021/12/14 10:01:45;;;;;;;23.35;12.05;;;11.20;97.40;;;;;;5008462;28;20063;-86
2021/12/14 10:04:17;;;;;;;23.15;11.50;;;11.30;97.20;;;;;;4988155;28;20033;-86
2021/12/14 10:06:44;;;;;;;21.30;10.88;;;11.30;97.20;;;;;;5010064;28;20277;-86
2021/12/14 10:09:14;;;;;;;21.88;11.30;;;11.20;97.20;;;;;;4990289;28;20929;-86
2021/12/14 10:12:00;;;;;;;22.35;10.82;;;11.20;97.10;;;;;;5013159;28;20017;-86
2021/12/14 10:14:34;;;;;;;19.30;10.15;;;11.20;97.20;;;;;;5030714;28;20033;-86
2021/12/14 10:17:00;;;;;;;21.40;10.05;;;11.30;97.20;;;;;;5017652;28;20583;-86
2021/12/14 10:19:30;;;;;;;19.42;9.98;;;11.20;97.20;;;;;;5006297;28;20032;-86
2021/12/14 10:22:04;;;;;;;19.52;10.65;;;11.20;97.20;;;;;;5024728;28;20043;-87
2021/12/14 10:24:31;;;;;;;17.45;9.82;;;11.30;97.10;;;;;;5018298;28;20032;-86
2021/12/14 10:27:01;;;;;;;19.48;10.20;;;11.20;97.20;;;;;;4993316;28;20515;-86
2021/12/14 10:29:29;;;;;;;19.88;10.40;;;11.20;97.20;;;;;;5031406;28;20033;-86
2021/12/14 10:32:12;;;;;;;19.58;10.07;;;11.30;97.70;;;;;;5015667;28;20044;-86
2021/12/14 10:34:45;;;;;;;19.65;10.43;;;11.30;97.10;;;;;;5003318;28;20409;-87
2021/12/14 10:37:24;;;;;;;17.38;9.40;;;11.30;97.40;;;;;;5028584;28;20281;-86
2021/12/14 10:43:04;;;;;;;18.80;9.70;;;11.30;97.30;;;;;;5013150;28;20036;-86
2021/12/14 10:45:28;;;;;;;16.30;9.23;;;11.40;97.50;;;;;;5033598;28;20059;-86
2021/12/14 10:47:57;;;;;;;19.00;9.85;;;11.40;97.50;;;;;;5018069;28;20116;-86
2021/12/14 10:50:31;;;;;;;20.65;11.20;;;11.40;97.50;;;;;;5020917;28;20552;-86
2021/12/14 10:52:58;;;;;;;18.60;10.35;;;11.40;97.40;;;;;;5023790;28;20222;-86
2021/12/14 10:55:43;;;;;;;19.88;11.35;;;11.40;97.40;;;;;;5004320;28;20112;-86
2021/12/14 10:58:10;;;;;;;18.30;9.70;;;11.40;97.20;;;;;;5015736;28;20445;-86
2021/12/14 11:00:52;;;;;;;18.25;9.98;;;11.50;97.60;;;;;;5013595;28;21720;-86
2021/12/14 11:03:23;;;;;;;19.90;9.80;;;11.50;97.80;;;;;;5019394;28;20108;-86
2021/12/14 11:05:53;;;;;;;16.17;9.23;;;11.50;98.00;;;;;;5023244;28;20455;-86
2021/12/14 11:09:41;;;;;;;19.02;10.70;;;11.60;97.70;;;;;;5009954;28;20028;-86
2021/12/14 11:11:14;;;;;;;19.77;11.07;;;11.60;97.80;;;;;;5017439;28;20037;-87
2021/12/14 11:13:45;;;;;;;20.73;10.50;;;11.70;97.60;;;;;;5002569;28;22270;-86
2021/12/14 11:16:19;;;;;;;19.10;10.23;;;11.60;97.60;;;;;;5014117;28;20028;-86
2021/12/14 11:18:48;;;;;;;19.05;10.50;;;11.70;97.70;;;;;;4995676;28;20356;-86
2021/12/14 11:21:17;;;;;;;17.98;9.57;;;11.70;97.70;;;;;;5003095;28;20035;-86
2021/12/14 11:23:46;;;;;;;20.27;10.88;;;11.70;97.70;;;;;;5011604;28;20509;-86
2021/12/14 11:26:20;;;;;;;19.23;10.68;;;11.80;97.60;;;;;;5036590;28;20032;-86
2021/12/14 11:28:53;;;;;;;18.52;11.18;;;11.80;97.60;;;;;;4997448;28;20615;-86
2021/12/14 11:31:28;;;;;;;20.90;11.85;;;11.90;97.50;;;;;;5027913;28;20037;-85
2021/12/14 11:34:04;;;;;;;19.25;11.48;;;11.90;97.30;;;;;;5020460;28;20604;-85
2021/12/14 11:36:35;;;;;;;18.73;9.93;;;11.90;97.40;;;;;;5002267;28;20033;-85
2021/12/14 11:39:09;;;;;;;20.05;11.35;;;11.90;97.00;;;;;;5025470;28;20036;-85
2021/12/14 11:41:42;;;;;;;21.10;11.60;;;11.90;97.40;;;;;;5008554;28;20036;-85
2021/12/14 11:44:14;;;;;;;19.80;11.85;;;11.90;97.10;;;;;;5011022;28;20297;-85
2021/12/14 11:47:11;;;;;;;19.50;11.13;;;11.90;97.70;;;;;;5026124;28;20404;-85
2021/12/14 11:49:55;;;;;;;18.70;10.02;;;11.90;96.50;;;;;;4996912;28;20232;-85
2021/12/14 11:52:49;;;;;;;18.25;9.88;;;11.90;96.90;;;;;;4998200;28;20039;-85
2021/12/14 11:55:28;;;;;;;;;;;11.90;96.60;;;;;;5036405;28;20120;-85
2021/12/14 11:58:26;;;;;;;15.07;8.93;;;11.90;96.00;;;;;;5024668;28;20290;-86
2021/12/14 12:01:16;;;;;;;17.67;10.48;;;11.90;96.70;;;;;;5012619;28;20114;-86
2021/12/14 12:03:44;;;;;;;19.67;10.50;;;11.90;96.80;;;;;;5003215;28;20035;-86
2021/12/14 12:06:33;;;;;;;18.55;10.93;;;11.90;97.20;;;;;;5027346;28;20035;-85
2021/12/14 12:09:29;;;;;;;18.35;10.40;;;11.90;97.30;;;;;;5045662;28;20485;-85
2021/12/14 12:12:03;;;;;;;18.85;10.80;;;12.00;97.50;;;;;;5017660;28;20067;-85
2021/12/14 12:14:29;;;;;;;17.33;9.27;;;12.00;97.20;;;;;;5009747;28;20029;-86
2021/12/14 12:17:07;;;;;;;17.23;9.88;;;12.00;97.50;;;;;;5013401;28;20468;-86
2021/12/14 12:19:33;;;;;;;17.88;10.55;;;12.00;97.50;;;;;;5024072;28;20049;-86
2021/12/14 12:22:09;;;;;;;18.92;11.07;;;12.00;97.50;;;;;;5006692;28;20163;-85
2021/12/14 12:24:56;;;;;;;17.88;10.38;;;12.10;97.30;;;;;;5043039;28;20039;-86
2021/12/14 12:27:29;;;;;;;18.98;10.75;;;12.10;97.00;;;;;;5026746;28;20040;-85
2021/12/14 12:30:25;;;;;;;17.77;10.17;;;12.10;97.40;;;;;;5040998;28;20032;-85
2021/12/14 12:32:51;;;;;;;17.95;10.52;;;12.20;97.00;;;;;;5019734;28;20466;-86
2021/12/14 12:35:30;;;;;;;16.67;9.63;;;12.10;97.70;;;;;;5001901;28;20199;-86
2021/12/14 12:37:58;;;;;;;16.85;9.52;;;12.20;97.60;;;;;;5016987;28;20040;-86
2021/12/14 12:40:47;;;;;;;17.55;9.35;;;12.20;97.70;;;;;;5005984;28;20288;-86
2021/12/14 12:43:32;;;;;;;17.33;10.25;;;12.20;97.30;;;;;;5020618;28;20467;-86
2021/12/14 12:46:09;;;;;;;17.75;9.80;;;12.30;97.30;;;;;;4993538;28;20486;-86
2021/12/14 12:49:01;;;;;;;20.15;11.15;;;12.30;97.10;;;;;;5026785;28;20039;-86
2021/12/14 12:51:40;;;;;;;20.75;11.88;;;12.30;97.10;;;;;;5008554;28;20039;-86
2021/12/14 12:54:21;;;;;;;19.73;11.55;;;12.40;96.60;;;;;;5037089;28;20028;-86
2021/12/14 12:57:31;;;;;;;19.05;11.70;;;12.30;96.50;;;;;;5015864;28;20470;-87
2021/12/14 13:00:09;;;;;;;19.48;11.13;;;12.30;96.30;;;;;;5017550;28;20116;-86
2021/12/14 13:02:53;;;;;;;18.70;10.73;;;12.30;97.00;;;;;;5009149;28;20028;-86
2021/12/14 13:05:34;;;;;;;18.45;10.13;;;12.30;96.80;;;;;;5010344;28;20028;-86
2021/12/14 13:08:08;;;;;;;16.92;9.63;;;12.30;96.80;;;;;;5014799;28;20043;-86
2021/12/14 13:10:55;;;;;;;19.67;10.35;;;12.30;97.00;;;;;;4999548;28;20112;-86
2021/12/14 13:13:25;;;;;;;16.95;9.48;;;12.30;97.00;;;;;;5007041;28;20043;-86
2021/12/14 13:16:07;;;;;;;17.25;9.63;;;12.30;97.10;;;;;;5021167;28;20043;-86
2021/12/14 13:19:13;;;;;;;19.55;11.02;;;12.30;96.80;;;;;;5001819;28;20122;-86
2021/12/14 13:21:42;;;;;;;17.65;9.88;;;12.30;96.70;;;;;;5008541;28;20673;-86
2021/12/14 13:24:15;;;;;;;17.90;10.00;;;12.30;97.00;;;;;;5011612;28;20048;-86
2021/12/14 13:26:53;;;;;;;18.33;10.45;;;12.30;97.10;;;;;;5028992;28;20024;-86
2021/12/14 13:29:33;;;;;;;19.40;9.73;;;12.30;97.10;;;;;;5009015;28;20043;-86
2021/12/14 13:32:06;;;;;;;14.93;8.93;;;12.20;96.70;;;;;;5018782;28;20044;-86
2021/12/14 13:34:59;;;;;;;16.55;9.57;;;12.20;97.00;;;;;;5007844;28;20059;-86
2021/12/14 13:37:34;;;;;;;15.82;9.35;;;12.30;96.90;;;;;;5018089;28;20499;-86